createdAt,value
2023-01-29T00:05:28.425Z,7.2
2023-01-29T00:10:55.685Z,9.6
2023-01-29T00:16:16.332Z,10.7
2023-01-29T00:21:51.421Z,11.9
2023-01-29T00:27:21.859Z,10.7
2023-01-29T00:32:58.247Z,13.2
2023-01-29T00:38:37.245Z,14.4
2023-01-29T00:44:00.815Z,11.9
2023-01-29T00:49:33.316Z,14.4
2023-01-29T00:55:20.546Z,13.2
2023-01-29T01:00:54.987Z,15.6
2023-01-29T01:06:30.961Z,13.2
2023-01-29T01:11:45.342Z,14.4
2023-01-29T01:17:39.019Z,14.4
2023-01-29T01:22:55.677Z,13.2
2023-01-29T01:28:39.740Z,13.2
2023-01-29T01:34:23.083Z,11.9
2023-01-29T01:39:34.387Z,13.2
2023-01-29T01:45:21.382Z,11.9
2023-01-29T01:50:37.300Z,14.4
2023-01-29T01:56:36.596Z,14.4
2023-01-29T02:02:12.584Z,11.9
2023-01-29T02:07:40.926Z,13.2
2023-01-29T02:13:20.494Z,13.2
2023-01-29T02:18:33.038Z,13.2
2023-01-29T02:24:22.182Z,13.2
2023-01-29T02:29:55.162Z,14.4
2023-01-29T02:35:35.419Z,18
2023-01-29T02:40:53.705Z,20.4
2023-01-29T02:46:41.180Z,15.6
2023-01-29T02:52:08.211Z,15.6
2023-01-29T02:57:44.631Z,13.2
2023-01-29T03:03:24.912Z,10.7
2023-01-29T03:08:54.125Z,10.7
2023-01-29T03:14:22.155Z,9.6
2023-01-29T03:19:52.867Z,8.4
2023-01-29T03:25:16.490Z,14.4
2023-01-29T03:30:54.485Z,13.2
2023-01-29T03:36:48.427Z,10.7
2023-01-29T03:42:19.574Z,13.2
2023-01-29T03:47:51.784Z,15.6
2023-01-29T03:53:27.848Z,10.7
2023-01-29T03:59:01.300Z,13.2
2023-01-29T04:04:19.028Z,13.2
2023-01-29T04:09:47.716Z,14.4
2023-01-29T04:15:24.786Z,14.4
2023-01-29T04:21:07.499Z,14.4
2023-01-29T04:26:51.985Z,14.4
2023-01-29T04:31:58.751Z,16.8
2023-01-29T04:37:38.333Z,15.6
2023-01-29T04:43:04.813Z,13.2
2023-01-29T04:48:43.472Z,14.4
2023-01-29T04:54:21.009Z,14.4
2023-01-29T04:59:59.501Z,13.2
2023-01-29T05:05:34.240Z,13.2
2023-01-29T05:10:55.310Z,14.4
2023-01-29T05:16:44.741Z,10.7
2023-01-29T05:22:09.318Z,8.4
2023-01-29T05:27:38.602Z,9.6
2023-01-29T05:33:09.544Z,9.6
2023-01-29T05:39:01.723Z,9.6
2023-01-29T05:44:29.831Z,8.4
2023-01-29T05:50:10.276Z,7.2
2023-01-29T05:55:23.917Z,9.6
2023-01-29T06:01:04.049Z,8.4
2023-01-29T06:06:38.292Z,8.4
2023-01-29T06:12:23.058Z,8.4
2023-01-29T06:17:54.798Z,7.2
2023-01-29T06:23:21.995Z,5.9
2023-01-29T06:29:03.138Z,5.9
2023-01-29T06:34:31.386Z,7.2
2023-01-29T06:39:58.392Z,7.2
2023-01-29T06:45:51.527Z,8.4
2023-01-29T06:51:07.018Z,7.2
2023-01-29T06:56:51.045Z,7.2
2023-01-29T07:02:09.869Z,7.2
2023-01-29T07:07:52.387Z,7.2
2023-01-29T07:13:22.920Z,5.9
2023-01-29T07:19:15.224Z,4.8
2023-01-29T07:24:46.930Z,5.9
2023-01-29T07:30:16.226Z,4.8
2023-01-29T07:35:51.246Z,4.8
2023-01-29T07:41:27.276Z,4.8
2023-01-29T07:46:56.908Z,3.6
2023-01-29T07:57:45.482Z,5.9
2023-01-29T08:03:27.412Z,7.2
2023-01-29T08:09:09.105Z,4.8
2023-01-29T08:14:47.715Z,5.9
2023-01-29T08:20:15.595Z,4.8
2023-01-29T08:25:41.829Z,4.8
2023-01-29T08:31:13.970Z,4.8
2023-01-29T08:36:52.554Z,4.8
2023-01-29T08:42:39.257Z,7.2
2023-01-29T08:47:58.086Z,8.4
2023-01-29T08:53:49.141Z,7.2
2023-01-29T08:59:12.761Z,8.4
2023-01-29T09:04:36.452Z,8.4
2023-01-29T09:10:14.453Z,9.6
2023-01-29T09:15:43.660Z,8.4
2023-01-29T09:21:34.823Z,5.9
2023-01-29T09:27:00.958Z,5.9
2023-01-29T09:37:53.377Z,5.9
2023-01-29T09:43:38.552Z,7.2
2023-01-29T09:49:15.855Z,7.2
2023-01-29T09:54:30.969Z,5.9
2023-01-29T10:00:22.176Z,4.8
2023-01-29T10:05:40.253Z,4.8
2023-01-29T10:11:26.591Z,4.8
2023-01-29T10:17:14.013Z,5.9
2023-01-29T10:28:18.302Z,5.9
2023-01-29T10:33:48.945Z,3.6
2023-01-29T10:39:17.679Z,4.8
2023-01-29T10:45:03.134Z,3.6
2023-01-29T10:50:19.661Z,0
2023-01-29T10:56:10.846Z,3.6
2023-01-29T11:01:30.494Z,0
2023-01-29T11:07:09.255Z,3.6
2023-01-29T11:12:27.001Z,0
2023-01-29T11:18:19.567Z,4.8
2023-01-29T11:23:33.805Z,3.6
2023-01-29T11:29:30.443Z,8.4
2023-01-29T11:34:41.728Z,5.9
2023-01-29T11:40:26.652Z,5.9
2023-01-29T11:45:52.717Z,4.8
2023-01-29T11:51:43.913Z,4.8
2023-01-29T11:57:09.532Z,5.9
2023-01-29T12:02:36.734Z,3.6
2023-01-29T12:08:05.130Z,4.8
2023-01-29T12:13:43.355Z,4.8
2023-01-29T12:19:34.832Z,2.4
2023-01-29T12:24:43.698Z,4.8
2023-01-29T12:30:28.565Z,2.4
2023-01-29T12:36:05.396Z,0
2023-01-29T12:41:50.263Z,0
2023-01-29T12:47:02.471Z,0
2023-01-29T12:52:50.748Z,0
2023-01-29T12:58:19.042Z,3.6
2023-01-29T13:03:59.489Z,0
2023-01-29T13:09:31.548Z,0
2023-01-29T13:14:44.681Z,0
2023-01-29T13:20:25.737Z,0
2023-01-29T13:26:08.664Z,0
2023-01-29T13:31:37.099Z,0
2023-01-29T13:37:02.461Z,0
2023-01-29T13:42:46.618Z,0
2023-01-29T13:48:11.483Z,0
2023-01-29T13:53:39.262Z,0
2023-01-29T13:59:16.871Z,0
2023-01-29T14:05:01.955Z,0
2023-01-29T14:10:29.229Z,0
2023-01-29T14:16:05.972Z,0
2023-01-29T14:21:40.503Z,0
2023-01-29T14:27:08.315Z,0
2023-01-29T14:32:36.333Z,3.6
2023-01-29T14:38:20.784Z,2.4
2023-01-29T14:43:44.905Z,3.6
2023-01-29T14:49:30.084Z,3.6
2023-01-29T14:54:48.765Z,3.6
2023-01-29T15:00:43.923Z,0
2023-01-29T15:06:01.824Z,0
2023-01-29T15:11:51.299Z,0
2023-01-29T15:17:05.303Z,0
2023-01-29T15:22:31.847Z,0
2023-01-29T15:28:07.222Z,0
2023-01-29T15:33:46.039Z,0
2023-01-29T15:39:34.618Z,0
2023-01-29T15:44:51.096Z,0
2023-01-29T15:50:34.184Z,0
2023-01-29T15:55:54.349Z,0
2023-01-29T16:01:50.342Z,0
2023-01-29T16:07:24.418Z,0
2023-01-29T16:12:50.740Z,0
2023-01-29T16:18:01.874Z,0
2023-01-29T16:23:35.760Z,0
2023-01-29T16:29:15.618Z,0
2023-01-29T16:34:58.296Z,0
2023-01-29T16:40:33.752Z,0
2023-01-29T16:46:07.221Z,0
2023-01-29T16:51:31.007Z,0
2023-01-29T16:57:19.431Z,0
2023-01-29T17:02:25.322Z,0
2023-01-29T17:08:25.840Z,0
2023-01-29T17:13:47.930Z,0
2023-01-29T17:19:12.759Z,0
2023-01-29T17:24:46.101Z,0
2023-01-29T17:30:26.417Z,0
2023-01-29T17:35:45.617Z,0
2023-01-29T17:41:40.892Z,0
2023-01-29T17:46:55.052Z,0
2023-01-29T17:52:24.079Z,0
2023-01-29T17:57:59.234Z,0
2023-01-29T18:03:43.518Z,3.6
2023-01-29T18:09:13.890Z,0
2023-01-29T18:14:37.790Z,0
2023-01-29T18:20:07.834Z,0
2023-01-29T18:25:57.901Z,0
2023-01-29T18:31:35.948Z,0
2023-01-29T18:36:55.394Z,0
2023-01-29T18:42:19.836Z,0
2023-01-29T18:47:58.162Z,0
2023-01-29T18:53:27.974Z,0
2023-01-29T18:59:08.458Z,0
2023-01-29T19:04:53.561Z,0
2023-01-29T19:10:21.381Z,0
2023-01-29T19:15:59.907Z,0
2023-01-29T19:21:12.736Z,0
2023-01-29T19:27:06.239Z,0
2023-01-29T19:32:24.163Z,0
2023-01-29T19:38:04.509Z,0
2023-01-29T19:43:35.901Z,0
2023-01-29T19:48:48.146Z,0
2023-01-29T19:54:49.679Z,0
2023-01-29T20:00:16.772Z,0
2023-01-29T20:05:53.234Z,0
2023-01-29T20:11:26.141Z,0
2023-01-29T20:16:36.274Z,0
2023-01-29T20:22:13.042Z,0
2023-01-29T20:27:59.757Z,0
2023-01-29T20:33:32.756Z,0
2023-01-29T20:38:44.462Z,0
2023-01-29T20:44:26.573Z,3.6
2023-01-29T20:49:54.694Z,0
2023-01-29T20:55:31.863Z,0
2023-01-29T21:00:57.665Z,0
2023-01-29T21:06:51.525Z,0
2023-01-29T21:12:04.739Z,0
2023-01-29T21:17:31.188Z,0
2023-01-29T21:23:25.594Z,0
2023-01-29T21:28:42.316Z,0
2023-01-29T21:34:21.841Z,0
2023-01-29T21:39:49.995Z,0
2023-01-29T21:45:16.398Z,0
2023-01-29T21:50:50.958Z,0
2023-01-29T21:56:31.346Z,0
2023-01-29T22:02:04.729Z,0
2023-01-29T22:07:46.342Z,0
2023-01-29T22:13:16.694Z,0
2023-01-29T22:18:33.676Z,0
2023-01-29T22:24:17.425Z,0
2023-01-29T22:29:43.980Z,2.4
2023-01-29T22:35:08.517Z,0
2023-01-29T22:40:39.142Z,3.6
2023-01-29T22:46:15.050Z,2.4
2023-01-29T22:52:09.917Z,3.6
2023-01-29T22:57:36.462Z,0
2023-01-29T23:03:09.253Z,0
2023-01-29T23:08:33.184Z,0
2023-01-29T23:14:09.409Z,0
2023-01-29T23:19:47.747Z,0
2023-01-29T23:25:09.832Z,0
2023-01-29T23:30:56.018Z,0
2023-01-29T23:36:18.755Z,0
2023-01-29T23:41:41.329Z,0
2023-01-29T23:47:37.373Z,0
2023-01-29T23:52:52.824Z,0
2023-01-29T23:58:18.397Z,0
